createdAt,value
2018-06-24T00:00:28.788Z,0
2018-06-24T00:01:30.262Z,0
2018-06-24T00:02:31.611Z,0
2018-06-24T00:03:32.964Z,0
2018-06-24T00:04:34.365Z,0
2018-06-24T00:05:35.688Z,0
2018-06-24T00:06:37.042Z,0
2018-06-24T00:07:38.398Z,0
2018-06-24T00:08:39.777Z,0
2018-06-24T00:09:41.129Z,0
2018-06-24T00:10:42.492Z,0
2018-06-24T00:11:43.842Z,0
2018-06-24T00:12:45.193Z,0
2018-06-24T00:13:46.583Z,0
2018-06-24T00:14:47.932Z,0
2018-06-24T00:15:49.333Z,0
2018-06-24T00:16:50.723Z,0
2018-06-24T00:17:52.088Z,0
2018-06-24T00:18:53.463Z,0
2018-06-24T00:19:54.819Z,0
2018-06-24T00:20:56.174Z,0
2018-06-24T00:21:57.539Z,0
2018-06-24T00:22:58.903Z,0
2018-06-24T00:24:00.255Z,0
2018-06-24T00:25:01.627Z,0
2018-06-24T00:26:02.980Z,0
2018-06-24T00:27:04.339Z,0
2018-06-24T00:28:05.694Z,0
2018-06-24T00:29:07.079Z,0
2018-06-24T00:30:08.437Z,0
2018-06-24T00:31:09.794Z,0
2018-06-24T00:32:11.177Z,0
2018-06-24T00:33:12.504Z,0
2018-06-24T00:34:13.867Z,0
2018-06-24T00:35:15.219Z,0
2018-06-24T00:36:16.589Z,0
2018-06-24T00:37:18.036Z,0
2018-06-24T00:38:19.317Z,0
2018-06-24T00:39:20.684Z,0
2018-06-24T00:40:22.043Z,0
2018-06-24T00:41:23.404Z,0
2018-06-24T00:42:24.769Z,0
2018-06-24T00:43:26.139Z,0
2018-06-24T00:44:27.495Z,0
2018-06-24T00:45:28.852Z,0
2018-06-24T00:46:30.224Z,0
2018-06-24T00:47:31.597Z,0
2018-06-24T00:48:32.963Z,0
2018-06-24T00:49:34.319Z,0
2018-06-24T00:50:35.678Z,0
2018-06-24T00:51:37.037Z,0
2018-06-24T00:52:38.397Z,0
2018-06-24T00:53:39.749Z,0
2018-06-24T00:54:41.109Z,0
2018-06-24T00:55:42.470Z,0
2018-06-24T00:56:43.817Z,0
2018-06-24T00:57:45.182Z,0
2018-06-24T00:58:46.554Z,0
2018-06-24T00:59:47.915Z,0
2018-06-24T01:00:49.300Z,0
2018-06-24T01:01:50.667Z,0
2018-06-24T01:02:52.020Z,0
2018-06-24T01:03:53.379Z,0
2018-06-24T01:04:54.742Z,0
2018-06-24T01:05:56.146Z,0
2018-06-24T01:06:57.488Z,0
2018-06-24T01:07:58.874Z,0
2018-06-24T01:09:00.211Z,0
2018-06-24T01:10:01.580Z,0
2018-06-24T01:11:02.943Z,0
2018-06-24T01:12:04.298Z,0
2018-06-24T01:13:05.665Z,0
2018-06-24T01:14:07.018Z,0
2018-06-24T01:15:08.381Z,0
2018-06-24T01:16:09.747Z,0
2018-06-24T01:17:11.103Z,0
2018-06-24T01:18:12.477Z,0
2018-06-24T01:19:13.845Z,0
2018-06-24T01:20:15.208Z,0
2018-06-24T01:21:16.578Z,0
2018-06-24T01:22:17.934Z,0
2018-06-24T01:23:19.341Z,0
2018-06-24T01:24:20.693Z,0
2018-06-24T01:25:22.053Z,0
2018-06-24T01:26:23.433Z,0
2018-06-24T01:27:24.799Z,0
2018-06-24T01:28:26.161Z,0
2018-06-24T01:29:27.508Z,0
2018-06-24T01:30:28.860Z,0
2018-06-24T01:31:30.216Z,0
2018-06-24T01:32:31.608Z,0
2018-06-24T01:33:32.965Z,0
2018-06-24T01:34:34.319Z,0
2018-06-24T01:35:35.677Z,0
2018-06-24T01:36:37.055Z,0
2018-06-24T01:37:38.406Z,0
2018-06-24T01:38:39.764Z,0
2018-06-24T01:39:41.269Z,0
2018-06-24T01:40:42.630Z,0
2018-06-24T01:41:43.985Z,0
2018-06-24T01:42:45.353Z,0
2018-06-24T01:43:46.715Z,0
2018-06-24T01:44:48.060Z,0
2018-06-24T01:45:49.448Z,0
2018-06-24T01:46:50.809Z,0
2018-06-24T01:47:52.172Z,0
2018-06-24T01:48:53.520Z,0
2018-06-24T01:49:54.885Z,0
2018-06-24T01:50:56.245Z,0
2018-06-24T01:51:57.594Z,0
2018-06-24T01:52:58.965Z,0
2018-06-24T01:54:00.319Z,0
2018-06-24T01:55:01.719Z,0
2018-06-24T01:56:03.063Z,0
2018-06-24T01:57:04.434Z,0
2018-06-24T01:58:05.779Z,0
2018-06-24T01:59:07.151Z,0
2018-06-24T02:00:08.510Z,0
2018-06-24T02:01:09.868Z,0
2018-06-24T02:02:11.224Z,0
2018-06-24T02:03:12.590Z,0
2018-06-24T02:04:13.935Z,0
2018-06-24T02:05:15.298Z,0
2018-06-24T02:06:16.610Z,0
2018-06-24T02:07:17.955Z,0
2018-06-24T02:08:20.295Z,0
2018-06-24T02:09:21.657Z,0
2018-06-24T02:10:23.016Z,0
2018-06-24T02:11:24.376Z,0
2018-06-24T02:12:25.735Z,0
2018-06-24T02:13:27.095Z,0
2018-06-24T02:14:28.439Z,0
2018-06-24T02:15:29.800Z,0
2018-06-24T02:16:31.164Z,0
2018-06-24T02:17:32.520Z,0
2018-06-24T02:18:33.878Z,0
2018-06-24T02:19:35.256Z,0
2018-06-24T02:20:36.619Z,0
2018-06-24T02:21:37.981Z,0
2018-06-24T02:22:39.343Z,0
2018-06-24T02:23:40.699Z,0
2018-06-24T02:24:42.064Z,0
2018-06-24T02:25:43.421Z,0
2018-06-24T02:26:44.769Z,0
2018-06-24T02:27:46.124Z,0
2018-06-24T02:28:47.514Z,0
2018-06-24T02:29:48.853Z,0
2018-06-24T02:30:50.252Z,0
2018-06-24T02:31:51.610Z,0
2018-06-24T02:32:52.959Z,0
2018-06-24T02:33:54.320Z,0
2018-06-24T02:34:55.683Z,0
2018-06-24T02:35:57.066Z,0
2018-06-24T02:36:58.429Z,4
2018-06-24T02:37:59.775Z,4
2018-06-24T02:39:01.145Z,4
2018-06-24T02:40:02.496Z,0
2018-06-24T02:41:03.889Z,4
2018-06-24T02:42:05.247Z,4
2018-06-24T02:43:06.606Z,8
2018-06-24T02:44:07.965Z,8
2018-06-24T02:45:09.324Z,8
2018-06-24T02:46:10.680Z,8
2018-06-24T02:47:12.054Z,8
2018-06-24T02:48:13.396Z,12
2018-06-24T02:49:14.779Z,12
2018-06-24T02:50:16.160Z,12
2018-06-24T02:51:17.504Z,20
2018-06-24T02:52:18.905Z,20
2018-06-24T02:53:20.250Z,20
2018-06-24T02:54:21.604Z,24
2018-06-24T02:55:22.965Z,28
2018-06-24T02:56:24.320Z,32
2018-06-24T02:57:25.695Z,36
2018-06-24T02:58:27.071Z,44
2018-06-24T02:59:28.427Z,48
2018-06-24T03:00:29.775Z,52
2018-06-24T03:01:31.172Z,60
2018-06-24T03:02:32.535Z,68
2018-06-24T03:03:33.892Z,80
2018-06-24T03:04:35.259Z,88
2018-06-24T03:05:36.650Z,104
2018-06-24T03:06:38.001Z,116
2018-06-24T03:07:39.351Z,128
2018-06-24T03:08:40.740Z,140
2018-06-24T03:09:42.096Z,156
2018-06-24T03:10:43.456Z,172
2018-06-24T03:11:44.822Z,192
2018-06-24T03:12:46.174Z,208
2018-06-24T03:13:47.552Z,228
2018-06-24T03:14:48.925Z,256
2018-06-24T03:15:50.261Z,288
2018-06-24T03:16:51.625Z,328
2018-06-24T03:17:52.981Z,368
2018-06-24T03:18:54.351Z,412
2018-06-24T03:19:55.720Z,456
2018-06-24T03:20:57.111Z,496
2018-06-24T03:21:58.479Z,540
2018-06-24T03:22:59.834Z,584
2018-06-24T03:24:01.189Z,628
2018-06-24T03:25:02.546Z,676
2018-06-24T03:26:03.900Z,728
2018-06-24T03:27:05.287Z,780
2018-06-24T03:28:06.689Z,840
2018-06-24T03:29:08.049Z,900
2018-06-24T03:30:09.405Z,964
2018-06-24T03:31:10.796Z,1036
2018-06-24T03:32:12.179Z,1108
2018-06-24T03:33:13.601Z,1180
2018-06-24T03:34:14.976Z,1256
2018-06-24T03:35:16.345Z,1336
2018-06-24T03:36:17.760Z,1420
2018-06-24T03:37:19.132Z,1508
2018-06-24T03:38:20.486Z,1596
2018-06-24T03:39:21.865Z,1684
2018-06-24T03:40:23.279Z,1772
2018-06-24T03:41:24.605Z,1864
2018-06-24T03:42:25.967Z,1960
2018-06-24T03:43:27.345Z,2060
2018-06-24T03:44:28.702Z,2168
2018-06-24T03:45:30.080Z,2280
2018-06-24T03:46:31.441Z,2380
2018-06-24T03:47:32.820Z,2488
2018-06-24T03:48:34.175Z,2592
2018-06-24T03:49:35.542Z,2688
2018-06-24T03:50:36.931Z,2780
2018-06-24T03:51:38.280Z,2876
2018-06-24T03:52:39.632Z,2976
2018-06-24T03:53:40.991Z,3100
2018-06-24T03:54:42.356Z,3232
2018-06-24T03:55:43.720Z,3364
2018-06-24T03:56:45.100Z,3496
2018-06-24T03:57:46.524Z,3612
2018-06-24T03:58:47.897Z,3728
2018-06-24T03:59:49.281Z,3840
2018-06-24T04:00:50.652Z,3952
2018-06-24T04:01:52.022Z,4092
2018-06-24T04:02:53.377Z,4256
2018-06-24T04:03:54.745Z,4440
2018-06-24T04:04:56.116Z,4644
2018-06-24T04:05:57.512Z,4856
2018-06-24T04:06:58.880Z,5088
2018-06-24T04:08:00.249Z,5320
2018-06-24T04:09:01.616Z,5544
2018-06-24T04:10:02.967Z,5724
2018-06-24T04:11:04.330Z,5804
2018-06-24T04:12:05.708Z,5816
2018-06-24T04:13:07.063Z,5840
2018-06-24T04:14:08.432Z,5964
2018-06-24T04:15:09.801Z,6176
2018-06-24T04:16:11.170Z,6424
2018-06-24T04:17:12.529Z,6712
2018-06-24T04:18:13.886Z,7032
2018-06-24T04:19:15.259Z,7340
2018-06-24T04:20:16.647Z,7632
2018-06-24T04:21:18.441Z,7868
2018-06-24T04:22:20.386Z,8136
2018-06-24T04:23:21.745Z,8444
2018-06-24T04:24:23.102Z,8756
2018-06-24T04:25:24.516Z,9024
2018-06-24T04:26:25.877Z,9216
2018-06-24T04:27:27.240Z,9240
2018-06-24T04:28:28.601Z,9272
2018-06-24T04:29:29.977Z,9228
2018-06-24T04:30:31.337Z,9192
2018-06-24T04:31:32.700Z,9184
2018-06-24T04:32:34.135Z,9228
2018-06-24T04:33:35.534Z,9356
2018-06-24T04:34:36.880Z,9536
2018-06-24T04:35:38.266Z,9676
2018-06-24T04:36:39.641Z,9792
2018-06-24T04:37:40.997Z,9852
2018-06-24T04:38:42.367Z,9928
2018-06-24T04:39:43.746Z,10000
2018-06-24T04:40:45.107Z,10108
2018-06-24T04:41:46.473Z,10336
2018-06-24T04:42:47.843Z,10604
2018-06-24T04:43:49.235Z,10736
2018-06-24T04:44:50.575Z,10624
2018-06-24T04:45:51.941Z,10436
2018-06-24T04:46:53.305Z,10348
2018-06-24T04:47:54.668Z,10392
2018-06-24T04:48:56.037Z,10412
2018-06-24T04:49:57.407Z,10316
2018-06-24T04:50:58.765Z,10156
2018-06-24T04:52:00.139Z,10024
2018-06-24T04:53:01.497Z,9964
2018-06-24T04:54:02.867Z,9988
2018-06-24T04:55:04.260Z,10080
2018-06-24T04:56:05.623Z,10228
2018-06-24T04:57:06.981Z,10392
2018-06-24T04:58:08.355Z,10472
2018-06-24T04:59:09.720Z,10484
2018-06-24T05:00:11.082Z,10516
2018-06-24T05:01:12.446Z,10640
2018-06-24T05:02:13.821Z,10836
2018-06-24T05:03:15.177Z,11084
2018-06-24T05:04:16.547Z,11352
2018-06-24T05:05:17.915Z,11548
2018-06-24T05:06:19.832Z,11620
2018-06-24T05:07:21.271Z,11676
2018-06-24T05:08:22.667Z,11608
2018-06-24T05:09:24.033Z,11392
2018-06-24T05:10:25.522Z,11148
2018-06-24T05:11:26.898Z,10980
2018-06-24T05:12:28.275Z,11004
2018-06-24T05:13:29.637Z,11232
2018-06-24T05:14:31.003Z,11440
2018-06-24T05:15:32.368Z,11552
2018-06-24T05:16:33.743Z,11536
2018-06-24T05:17:35.111Z,11348
2018-06-24T05:18:36.481Z,11156
2018-06-24T05:19:37.846Z,11176
2018-06-24T05:20:39.213Z,11336
2018-06-24T05:21:40.587Z,11492
2018-06-24T05:22:41.971Z,11636
2018-06-24T05:23:43.337Z,11780
2018-06-24T05:24:44.699Z,12008
2018-06-24T05:25:46.063Z,12428
2018-06-24T05:26:47.434Z,12884
2018-06-24T05:27:48.806Z,13416
2018-06-24T05:28:50.218Z,13660
2018-06-24T05:29:51.581Z,13772
2018-06-24T05:30:52.953Z,13636
2018-06-24T05:31:54.326Z,13628
2018-06-24T05:32:55.686Z,13632
2018-06-24T05:33:57.052Z,13552
2018-06-24T05:34:58.428Z,13944
2018-06-24T05:35:59.785Z,14164
2018-06-24T05:37:01.159Z,15356
2018-06-24T05:38:02.531Z,15668
2018-06-24T05:39:03.959Z,15340
2018-06-24T05:40:05.312Z,15168
2018-06-24T05:41:06.685Z,14936
2018-06-24T05:42:08.056Z,14748
2018-06-24T05:43:09.504Z,14732
2018-06-24T05:44:10.811Z,14776
2018-06-24T05:45:12.176Z,15160
2018-06-24T05:46:13.539Z,15340
2018-06-24T05:47:14.901Z,15312
2018-06-24T05:48:16.273Z,15364
2018-06-24T05:49:17.643Z,15236
2018-06-24T05:50:19.013Z,15240
2018-06-24T05:51:20.406Z,15300
2018-06-24T05:52:21.768Z,15668
2018-06-24T05:53:23.128Z,16312
2018-06-24T05:54:24.554Z,17780
2018-06-24T05:55:25.863Z,18240
2018-06-24T05:56:27.242Z,19840
2018-06-24T05:57:28.601Z,17292
2018-06-24T05:58:29.986Z,17300
2018-06-24T05:59:31.351Z,17220
2018-06-24T06:00:32.714Z,17348
2018-06-24T06:01:34.093Z,17336
2018-06-24T06:02:35.479Z,17876
2018-06-24T06:03:36.887Z,19040
2018-06-24T06:04:38.219Z,19648
2018-06-24T06:05:39.589Z,19296
2018-06-24T06:06:40.952Z,19136
2018-06-24T06:07:43.016Z,19360
2018-06-24T06:08:44.386Z,20992
2018-06-24T06:09:45.753Z,22432
2018-06-24T06:10:47.132Z,23456
2018-06-24T06:11:48.498Z,24960
2018-06-24T06:12:49.896Z,25632
2018-06-24T06:13:51.281Z,26528
2018-06-24T06:14:52.660Z,28544
2018-06-24T06:15:54.029Z,30976
2018-06-24T06:16:55.389Z,33408
2018-06-24T06:17:56.777Z,36960
2018-06-24T06:18:58.158Z,41184
2018-06-24T06:19:59.529Z,30112
2018-06-24T06:21:00.901Z,32768
2018-06-24T06:22:02.307Z,33696
2018-06-24T06:23:03.673Z,29120
2018-06-24T06:24:05.040Z,30400
2018-06-24T06:25:06.422Z,34048
2018-06-24T06:26:07.793Z,38784
2018-06-24T06:27:09.178Z,48128
2018-06-24T06:28:10.543Z,48000
2018-06-24T06:29:11.917Z,33248
2018-06-24T06:30:13.354Z,34880
2018-06-24T06:31:14.619Z,31136
2018-06-24T06:32:16.004Z,31744
2018-06-24T06:33:17.376Z,29312
2018-06-24T06:34:18.750Z,34496
2018-06-24T06:35:20.148Z,51424
2018-06-24T06:36:21.523Z,62656
2018-06-24T06:37:22.889Z,44352
2018-06-24T06:38:24.267Z,28032
2018-06-24T06:39:25.662Z,26112
2018-06-24T06:40:27.025Z,25792
2018-06-24T06:41:28.402Z,26752
2018-06-24T06:42:29.783Z,29536
2018-06-24T06:43:31.149Z,30464
2018-06-24T06:44:32.519Z,32224
2018-06-24T06:45:34.122Z,40000
2018-06-24T06:46:35.247Z,43424
2018-06-24T06:47:36.638Z,50720
2018-06-24T06:48:38.035Z,57920
2018-06-24T06:49:39.407Z,52192
2018-06-24T06:50:40.794Z,42848
2018-06-24T06:51:42.173Z,38624
2018-06-24T06:52:43.550Z,36096
2018-06-24T06:53:44.927Z,38624
2018-06-24T06:54:46.303Z,36736
2018-06-24T06:55:47.680Z,36960
2018-06-24T06:56:49.082Z,51328
2018-06-24T06:57:50.416Z,46528
2018-06-24T06:58:51.752Z,45440
2018-06-24T06:59:53.127Z,44576
2018-06-24T07:00:54.502Z,44608
2018-06-24T07:01:55.889Z,40576
2018-06-24T07:02:57.278Z,41888
2018-06-24T07:03:58.665Z,43488
2018-06-24T07:05:00.050Z,44032
2018-06-24T07:06:01.445Z,46336
2018-06-24T07:07:02.818Z,41600
2018-06-24T07:08:04.193Z,40288
2018-06-24T07:09:05.565Z,36544
2018-06-24T07:10:07.024Z,33632
2018-06-24T07:11:08.418Z,31872
2018-06-24T07:12:09.804Z,31456
2018-06-24T07:13:11.192Z,31648
2018-06-24T07:14:12.586Z,32192
2018-06-24T07:15:13.969Z,33696
2018-06-24T07:16:15.350Z,34016
2018-06-24T07:17:16.730Z,40096
2018-06-24T07:18:18.104Z,35264
2018-06-24T07:19:19.532Z,34368
2018-06-24T07:20:20.914Z,39168
2018-06-24T07:21:22.323Z,43360
2018-06-24T07:22:23.694Z,40416
2018-06-24T07:23:25.088Z,38496
2018-06-24T07:24:26.474Z,52640
2018-06-24T07:25:27.856Z,37984
2018-06-24T07:26:29.248Z,38848
2018-06-24T07:27:30.627Z,49696
2018-06-24T07:28:32.010Z,55264
2018-06-24T07:29:33.414Z,48544
2018-06-24T07:30:34.789Z,61088
2018-06-24T07:31:36.169Z,60224
2018-06-24T07:32:37.553Z,52512
2018-06-24T07:33:38.971Z,50784
2018-06-24T07:34:40.304Z,54688
2018-06-24T07:35:41.680Z,55328
2018-06-24T07:36:43.073Z,46208
2018-06-24T07:37:44.475Z,49248
2018-06-24T07:38:45.890Z,56128
2018-06-24T07:39:47.289Z,44992
2018-06-24T07:40:48.688Z,41984
2018-06-24T07:41:50.149Z,40192
2018-06-24T07:42:51.590Z,47552
2018-06-24T07:43:53.063Z,46624
2018-06-24T07:44:54.449Z,44992
2018-06-24T07:45:55.875Z,46720
2018-06-24T07:46:57.278Z,43168
2018-06-24T07:47:58.722Z,36640
2018-06-24T07:49:00.167Z,34848
2018-06-24T07:50:01.572Z,33664
2018-06-24T07:51:02.963Z,33120
2018-06-24T07:52:04.374Z,32224
2018-06-24T07:53:05.799Z,31136
2018-06-24T07:54:07.229Z,31040
2018-06-24T07:55:08.619Z,31744
2018-06-24T07:56:10.006Z,32576
2018-06-24T07:57:11.403Z,35744
2018-06-24T07:58:12.785Z,39520
2018-06-24T07:59:14.175Z,40544
2018-06-24T08:00:15.569Z,39136
2018-06-24T08:01:16.981Z,40160
2018-06-24T08:02:18.391Z,43488
2018-06-24T08:03:23.221Z,46176
2018-06-24T08:04:24.511Z,48096
2018-06-24T08:05:25.895Z,52288
2018-06-24T08:06:27.305Z,48896
2018-06-24T08:07:28.684Z,47904
2018-06-24T08:08:30.068Z,44608
2018-06-24T08:09:31.446Z,42496
2018-06-24T08:10:32.829Z,40224
2018-06-24T08:11:34.200Z,38144
2018-06-24T08:12:35.584Z,36320
2018-06-24T08:13:36.960Z,34816
2018-06-24T08:14:38.375Z,34080
2018-06-24T08:15:39.750Z,34208
2018-06-24T08:16:41.115Z,35104
2018-06-24T08:17:42.515Z,36128
2018-06-24T08:18:43.881Z,36864
2018-06-24T08:19:45.274Z,36992
2018-06-24T08:20:46.655Z,36640
2018-06-24T08:21:48.048Z,36736
2018-06-24T08:22:50.407Z,37792
2018-06-24T08:23:51.780Z,39680
2018-06-24T08:24:53.155Z,41568
2018-06-24T08:25:54.555Z,43200
2018-06-24T08:26:55.941Z,44192
2018-06-24T08:27:57.323Z,44928
2018-06-24T08:28:58.735Z,47648
2018-06-24T08:30:00.111Z,45888
2018-06-24T08:31:01.495Z,44032
2018-06-24T08:32:02.883Z,42944
2018-06-24T08:33:04.265Z,42656
2018-06-24T08:34:05.652Z,43296
2018-06-24T08:35:07.034Z,45216
2018-06-24T08:36:08.436Z,48224
2018-06-24T08:37:09.791Z,51392
2018-06-24T08:38:11.165Z,50080
2018-06-24T08:39:12.561Z,50336
2018-06-24T08:40:13.943Z,51744
2018-06-24T08:41:15.311Z,52704
2018-06-24T08:42:16.716Z,53376
2018-06-24T08:43:18.101Z,54272
2018-06-24T08:44:19.523Z,55808
2018-06-24T08:45:20.895Z,57440
2018-06-24T08:46:22.269Z,56480
2018-06-24T08:47:23.804Z,56352
2018-06-24T08:48:25.194Z,51904
2018-06-24T08:49:26.581Z,48896
2018-06-24T08:50:27.966Z,47072
2018-06-24T08:51:29.331Z,46208
2018-06-24T08:52:30.720Z,46368
2018-06-24T08:53:32.089Z,47584
2018-06-24T08:54:33.464Z,48800
2018-06-24T08:55:34.846Z,49248
2018-06-24T08:56:36.224Z,48704
2018-06-24T08:57:37.640Z,47424
2018-06-24T08:58:39.031Z,46144
2018-06-24T08:59:40.407Z,45184
2018-06-24T09:00:41.869Z,44800
2018-06-24T09:01:43.155Z,44864
2018-06-24T09:02:44.536Z,45120
2018-06-24T09:03:45.912Z,45408
2018-06-24T09:04:47.302Z,45472
2018-06-24T09:05:48.680Z,45312
2018-06-24T09:06:50.105Z,45024
2018-06-24T09:07:51.481Z,44960
2018-06-24T09:08:52.872Z,45120
2018-06-24T09:09:54.312Z,45344
2018-06-24T09:10:55.676Z,45408
2018-06-24T09:11:57.071Z,45024
2018-06-24T09:12:58.458Z,44320
2018-06-24T09:13:59.884Z,43488
2018-06-24T09:15:01.226Z,42912
2018-06-24T09:16:02.623Z,42752
2018-06-24T09:17:04.041Z,43200
2018-06-24T09:18:05.420Z,44064
2018-06-24T09:19:06.802Z,45216
2018-06-24T09:20:08.196Z,46400
2018-06-24T09:21:09.588Z,47232
2018-06-24T09:22:10.977Z,46848
2018-06-24T09:23:12.340Z,46464
2018-06-24T09:24:13.778Z,46752
2018-06-24T09:25:15.146Z,47328
2018-06-24T09:26:16.533Z,47200
2018-06-24T09:27:17.928Z,46784
2018-06-24T09:28:20.045Z,46272
2018-06-24T09:29:21.437Z,46048
2018-06-24T09:30:22.811Z,46656
2018-06-24T09:31:24.198Z,48096
2018-06-24T09:32:25.576Z,49856
2018-06-24T09:33:26.963Z,51392
2018-06-24T09:34:28.337Z,51328
2018-06-24T09:35:29.719Z,49216
2018-06-24T09:36:31.110Z,46592
2018-06-24T09:37:32.483Z,45120
2018-06-24T09:38:33.863Z,45216
2018-06-24T09:39:35.241Z,46048
2018-06-24T09:40:36.612Z,47136
2018-06-24T09:41:38.002Z,47776
2018-06-24T09:42:39.386Z,48448
2018-06-24T09:43:40.762Z,50304
2018-06-24T09:44:42.170Z,54336
2018-06-24T09:45:43.554Z,61312
2018-06-24T09:46:44.939Z,80576
2018-06-24T09:47:46.335Z,83712
2018-06-24T09:48:47.717Z,85728
2018-06-24T09:49:50.036Z,77888
2018-06-24T09:50:51.408Z,71296
2018-06-24T09:51:52.802Z,65472
2018-06-24T09:52:54.195Z,65440
2018-06-24T09:53:55.570Z,70560
2018-06-24T09:54:56.945Z,71808
2018-06-24T09:55:58.346Z,72480
2018-06-24T09:56:59.718Z,69664
2018-06-24T09:58:01.098Z,71168
2018-06-24T09:59:02.528Z,82528
2018-06-24T10:00:03.986Z,82336
2018-06-24T10:01:05.373Z,68384
2018-06-24T10:02:07.166Z,61408
2018-06-24T10:03:08.537Z,59744
2018-06-24T10:04:09.996Z,58208
2018-06-24T10:05:11.393Z,56384
2018-06-24T10:06:12.801Z,54080
2018-06-24T10:07:14.186Z,51648
2018-06-24T10:08:15.575Z,49248
2018-06-24T10:09:16.956Z,46656
2018-06-24T10:10:18.336Z,44448
2018-06-24T10:11:20.647Z,42688
2018-06-24T10:12:22.052Z,41120
2018-06-24T10:13:23.616Z,39680
2018-06-24T10:14:25.012Z,38592
2018-06-24T10:15:26.441Z,38304
2018-06-24T10:16:27.833Z,38464
2018-06-24T10:17:29.281Z,38592
2018-06-24T10:18:30.601Z,38400
2018-06-24T10:19:31.997Z,37664
2018-06-24T10:20:33.368Z,37056
2018-06-24T10:21:34.751Z,37152
2018-06-24T10:22:36.135Z,37856
2018-06-24T10:23:37.507Z,38848
2018-06-24T10:24:38.881Z,39904
2018-06-24T10:25:40.259Z,40960
2018-06-24T10:26:41.644Z,43200
2018-06-24T10:27:43.012Z,49088
2018-06-24T10:28:44.390Z,58208
2018-06-24T10:29:45.768Z,86432
2018-06-24T10:30:47.158Z,91136
2018-06-24T10:31:48.532Z,78880
2018-06-24T10:32:49.988Z,108928
2018-06-24T10:33:51.381Z,127680
2018-06-24T10:34:52.761Z,91808
2018-06-24T10:35:54.218Z,84960
2018-06-24T10:36:55.597Z,102624
2018-06-24T10:37:56.979Z,84192
2018-06-24T10:38:58.371Z,74944
2018-06-24T10:39:59.756Z,68704
2018-06-24T10:41:01.139Z,64960
2018-06-24T10:42:02.516Z,65216
2018-06-24T10:43:03.899Z,67424
2018-06-24T10:44:05.292Z,88032
2018-06-24T10:45:06.666Z,114432
2018-06-24T10:46:08.038Z,84608
2018-06-24T10:47:09.439Z,65984
2018-06-24T10:48:10.841Z,73184
2018-06-24T10:49:12.228Z,72320
2018-06-24T10:50:13.622Z,80384
2018-06-24T10:51:15.029Z,93056
2018-06-24T10:52:16.411Z,126720
2018-06-24T10:53:17.796Z,110528
2018-06-24T10:54:19.865Z,119488
2018-06-24T10:55:21.251Z,117728
2018-06-24T10:56:22.631Z,136032
2018-06-24T10:57:24.018Z,145440
2018-06-24T10:58:25.398Z,143904
2018-06-24T10:59:26.810Z,148256
2018-06-24T11:00:28.208Z,121792
2018-06-24T11:01:29.595Z,133824
2018-06-24T11:02:30.998Z,135680
2018-06-24T11:03:32.382Z,111808
2018-06-24T11:04:33.762Z,95968
2018-06-24T11:05:35.153Z,119392
2018-06-24T11:06:36.540Z,116128
2018-06-24T11:07:37.945Z,102816
2018-06-24T11:08:39.341Z,79968
2018-06-24T11:09:40.754Z,133248
2018-06-24T11:10:42.151Z,104288
2018-06-24T11:11:43.538Z,79584
2018-06-24T11:12:44.970Z,77024
2018-06-24T11:13:46.352Z,75456
2018-06-24T11:14:47.757Z,81248
2018-06-24T11:15:49.157Z,69696
2018-06-24T11:16:50.602Z,84864
2018-06-24T11:17:52.026Z,63616
2018-06-24T11:18:53.407Z,59808
2018-06-24T11:19:54.798Z,59296
2018-06-24T11:20:56.191Z,76000
2018-06-24T11:21:57.584Z,93920
2018-06-24T11:22:58.972Z,110720
2018-06-24T11:24:00.423Z,128000
2018-06-24T11:25:01.811Z,129856
2018-06-24T11:26:03.193Z,126336
2018-06-24T11:27:04.594Z,125664
2018-06-24T11:28:05.982Z,126304
2018-06-24T11:29:07.382Z,126592
2018-06-24T11:30:08.768Z,125248
2018-06-24T11:31:10.165Z,126400
2018-06-24T11:32:11.547Z,131136
2018-06-24T11:33:12.946Z,134112
2018-06-24T11:34:14.333Z,135136
2018-06-24T11:35:15.723Z,99456
2018-06-24T11:36:17.146Z,53760
2018-06-24T11:37:18.526Z,134144
2018-06-24T11:38:19.921Z,56576
2018-06-24T11:39:21.319Z,138336
2018-06-24T11:40:22.701Z,147840
2018-06-24T11:41:24.101Z,148032
2018-06-24T11:42:25.488Z,130208
2018-06-24T11:43:26.887Z,108320
2018-06-24T11:44:28.288Z,45504
2018-06-24T11:45:29.694Z,42560
2018-06-24T11:46:31.076Z,42496
2018-06-24T11:47:32.466Z,41568
2018-06-24T11:48:33.835Z,40640
2018-06-24T11:49:35.244Z,44448
2018-06-24T11:50:36.622Z,48160
2018-06-24T11:51:38.006Z,49120
2018-06-24T11:52:39.399Z,48032
2018-06-24T11:53:40.788Z,49696
2018-06-24T11:54:42.162Z,51968
2018-06-24T11:55:43.568Z,53504
2018-06-24T11:56:44.963Z,55712
2018-06-24T11:57:46.348Z,60064
2018-06-24T11:58:47.740Z,63840
2018-06-24T11:59:49.138Z,61568
2018-06-24T12:00:50.522Z,60384
2018-06-24T12:01:54.345Z,63424
2018-06-24T12:02:55.732Z,55168
2018-06-24T12:03:57.123Z,59072
2018-06-24T12:04:58.504Z,67520
2018-06-24T12:05:59.896Z,129824
2018-06-24T12:07:01.286Z,137184
2018-06-24T12:08:02.672Z,93440
2018-06-24T12:09:04.057Z,59456
2018-06-24T12:10:08.840Z,64128
2018-06-24T12:11:10.223Z,64672
2018-06-24T12:12:12.338Z,73536
2018-06-24T12:13:13.743Z,69280
2018-06-24T12:14:16.247Z,50688
2018-06-24T12:15:17.653Z,47200
2018-06-24T12:16:20.658Z,48512
2018-06-24T12:17:27.668Z,54656
2018-06-24T12:18:26.057Z,130528
2018-06-24T12:19:28.464Z,123584
2018-06-24T12:20:29.853Z,115680
2018-06-24T12:21:31.292Z,116032
2018-06-24T12:22:32.677Z,143584
2018-06-24T12:23:34.062Z,75808
2018-06-24T12:24:35.449Z,65952
2018-06-24T12:25:36.840Z,60096
2018-06-24T12:26:38.237Z,70816
2018-06-24T12:27:39.628Z,90752
2018-06-24T12:28:41.026Z,91488
2018-06-24T12:29:42.404Z,76896
2018-06-24T12:30:43.801Z,73312
2018-06-24T12:31:45.189Z,73376
2018-06-24T12:32:46.589Z,71968
2018-06-24T12:33:47.970Z,62016
2018-06-24T12:34:55.308Z,58080
2018-06-24T12:35:56.734Z,57120
2018-06-24T12:36:58.121Z,52480
2018-06-24T12:37:59.508Z,49152
2018-06-24T12:39:00.892Z,46784
2018-06-24T12:40:02.279Z,46048
2018-06-24T12:41:03.674Z,43136
2018-06-24T12:42:05.068Z,39008
2018-06-24T12:43:06.464Z,38336
2018-06-24T12:44:07.853Z,38848
2018-06-24T12:45:09.242Z,39488
2018-06-24T12:46:10.624Z,41696
2018-06-24T12:47:11.998Z,72640
2018-06-24T12:48:13.384Z,56864
2018-06-24T12:49:14.762Z,51232
2018-06-24T12:50:16.160Z,51200
2018-06-24T12:51:17.542Z,66016
2018-06-24T12:52:18.935Z,60032
2018-06-24T12:53:20.325Z,72864
2018-06-24T12:54:21.720Z,69568
2018-06-24T12:55:23.124Z,123232
2018-06-24T12:56:24.525Z,120544
2018-06-24T12:57:25.889Z,88288
2018-06-24T12:58:27.343Z,70816
2018-06-24T12:59:28.984Z,59712
2018-06-24T13:00:30.508Z,63648
2018-06-24T13:01:31.424Z,93056
2018-06-24T13:02:32.804Z,68960
2018-06-24T13:03:34.181Z,65216
2018-06-24T13:04:35.565Z,72928
2018-06-24T13:05:36.943Z,66048
2018-06-24T13:06:38.364Z,59488
2018-06-24T13:07:39.870Z,60320
2018-06-24T13:08:41.135Z,69056
2018-06-24T13:09:42.549Z,67616
2018-06-24T13:10:43.918Z,71712
2018-06-24T13:11:45.321Z,69344
2018-06-24T13:12:46.710Z,67456
2018-06-24T13:13:48.089Z,61408
2018-06-24T13:14:49.486Z,65728
2018-06-24T13:15:50.868Z,71328
2018-06-24T13:16:52.251Z,55584
2018-06-24T13:17:53.648Z,54688
2018-06-24T13:18:55.064Z,54336
2018-06-24T13:19:56.449Z,55488
2018-06-24T13:20:57.825Z,49056
2018-06-24T13:21:59.223Z,46432
2018-06-24T13:23:00.610Z,44224
2018-06-24T13:24:02.850Z,42848
2018-06-24T13:25:04.233Z,42912
2018-06-24T13:26:05.617Z,44384
2018-06-24T13:27:06.994Z,45408
2018-06-24T13:28:08.378Z,45280
2018-06-24T13:29:09.748Z,44000
2018-06-24T13:30:11.133Z,42688
2018-06-24T13:31:12.528Z,41888
2018-06-24T13:32:14.530Z,41536
2018-06-24T13:33:15.919Z,41120
2018-06-24T13:34:17.305Z,41248
2018-06-24T13:35:18.684Z,41184
2018-06-24T13:36:20.063Z,41696